Time;durP1;ratioP1;P1;durP2;ratioP2;P2;SDS_P1;SDS_P2;PMS_P1;PMS_P2;Temp;Humidity;BMP_temperature;BMP_pressure;BME280_temperature;BME280_humidity;BME280_pressure;Samples;Min_cycle;Max_cycle;Signal;HPM_P1;HPM_P2
2021/06/21 00:00:52;;;;;;;8.33;6.47;;;;;;;23.92;57.90;99683.36;126750;1089;102882;-79
2021/06/21 00:03:39;;;;;;;10.20;6.80;;;;;;;23.91;57.99;99687.02;126616;1089;102932;-79
2021/06/21 00:06:27;;;;;;;9.33;6.90;;;;;;;23.88;58.00;99679.32;126619;1090;102970;-79
2021/06/21 00:09:15;;;;;;;9.53;6.53;;;;;;;23.86;58.23;99667.11;126644;1089;103042;-79
2021/06/21 00:12:03;;;;;;;7.93;6.60;;;;;;;23.83;57.92;99660.27;126662;1088;113979;-79
2021/06/21 00:14:51;;;;;;;7.63;6.80;;;;;;;23.82;57.84;99661.25;126783;1090;102761;-78
2021/06/21 00:17:39;;;;;;;11.50;6.97;;;;;;;23.78;58.30;99655.39;126575;1089;114341;-78
2021/06/21 00:20:27;;;;;;;8.53;6.97;;;;;;;23.76;58.26;99649.38;126752;1088;102891;-79
2021/06/21 00:23:14;;;;;;;11.20;6.63;;;;;;;23.74;58.09;99655.84;126522;1090;114092;-79
2021/06/21 00:26:03;;;;;;;7.80;6.65;;;;;;;23.76;58.23;99661.85;126642;1090;102913;-79
2021/06/21 00:28:50;;;;;;;8.30;7.20;;;;;;;23.72;58.28;99649.83;126507;1090;113013;-79
2021/06/21 00:31:38;;;;;;;10.27;6.90;;;;;;;23.71;57.84;99658.80;126664;1089;102959;-79
2021/06/21 00:34:26;;;;;;;8.80;6.90;;;;;;;23.70;58.25;99644.66;126535;1090;114270;-79
2021/06/21 00:37:17;;;;;;;8.60;7.13;;;;;;;23.69;58.28;99658.92;126577;1089;102891;-79
2021/06/21 00:40:09;;;;;;;9.53;7.57;;;;;;;23.68;58.75;99653.75;126655;1089;102920;-79
2021/06/21 00:42:57;;;;;;;8.70;7.37;;;;;;;23.65;58.37;99649.56;126834;1090;102862;-79
2021/06/21 00:45:46;;;;;;;10.27;7.57;;;;;;;23.63;58.84;99643.55;126776;1089;102884;-79
2021/06/21 00:48:33;;;;;;;11.20;7.73;;;;;;;23.63;58.40;99645.38;126523;1090;114569;-79
2021/06/21 00:51:22;;;;;;;10.90;7.93;;;;;;;23.59;58.76;99646.66;126640;1090;103010;-79
2021/06/21 00:54:10;;;;;;;9.20;8.20;;;;;;;23.56;58.80;99642.44;126540;1089;114435;-79
2021/06/21 00:56:59;;;;;;;12.63;7.40;;;;;;;23.51;58.68;99648.17;126615;1090;103100;-79
2021/06/21 00:59:47;;;;;;;9.83;7.30;;;;;;;23.47;58.90;99643.30;126540;1089;114286;-79
2021/06/21 01:02:36;;;;;;;9.30;7.00;;;;;;;23.42;58.92;99630.44;126602;1090;102923;-79
2021/06/21 01:05:27;;;;;;;10.27;7.03;;;;;;;23.38;59.05;99630.89;126514;1089;114986;-80
2021/06/21 01:08:15;;;;;;;8.67;6.87;;;;;;;23.33;59.21;99627.80;126670;1090;102778;-78
2021/06/21 01:11:03;;;;;;;8.28;6.50;;;;;;;23.27;58.91;99623.91;126434;1090;114342;-78
2021/06/21 01:14:06;;;;;;;9.07;6.63;;;;;;;23.23;58.80;99627.86;126606;1089;102902;-79
2021/06/21 01:17:10;;;;;;;10.35;6.55;;;;;;;23.19;58.76;99621.16;126557;1088;114117;-79
2021/06/21 01:20:44;;;;;;;8.83;6.33;;;;;;;23.16;58.98;99616.09;126628;1089;103031;-79
2021/06/21 01:23:49;;;;;;;8.27;6.10;;;;;;;23.12;59.10;99617.38;126512;1088;114093;-79
2021/06/21 01:26:49;;;;;;;10.07;6.30;;;;;;;23.11;58.95;99613.88;126585;1090;102959;-79
2021/06/21 01:29:59;;;;;;;9.20;6.00;;;;;;;23.08;59.06;99613.33;126528;1090;114216;-79
2021/06/21 01:33:02;;;;;;;7.80;6.20;;;;;;;23.05;59.01;99614.47;126789;1090;103903;-79
2021/06/21 01:36:02;;;;;;;7.33;5.67;;;;;;;23.05;59.01;99602.98;126430;1090;114177;-79
2021/06/21 01:38:54;;;;;;;9.17;6.27;;;;;;;23.03;59.17;99603.14;126631;1089;102889;-78
2021/06/21 01:41:45;;;;;;;10.17;5.90;;;;;;;23.01;59.41;99606.92;126479;1089;114021;-79
2021/06/21 01:44:38;;;;;;;8.87;6.43;;;;;;;22.98;58.98;99599.21;126610;1088;101718;-78
2021/06/21 01:47:28;;;;;;;9.60;6.37;;;;;;;22.96;59.21;99604.67;126519;1090;113159;-78
2021/06/21 01:50:23;;;;;;;9.70;6.57;;;;;;;22.93;59.03;99612.95;126621;1089;102885;-79
2021/06/21 01:53:15;;;;;;;8.10;6.23;;;;;;;22.93;59.10;99606.79;126549;1088;114275;-78
2021/06/21 01:56:21;;;;;;;8.20;6.20;;;;;;;22.91;59.41;99613.09;126576;1089;102999;-78
2021/06/21 01:59:09;;;;;;;9.83;6.13;;;;;;;22.90;59.36;99611.42;126454;1088;114280;-78
2021/06/21 02:02:02;;;;;;;10.97;6.20;;;;;;;22.87;59.15;99614.37;126609;1090;102967;-79
2021/06/21 02:04:54;;;;;;;13.13;6.33;;;;;;;22.85;58.90;99603.04;126621;1090;114368;-78
2021/06/21 02:07:45;;;;;;;7.77;5.83;;;;;;;22.83;59.61;99604.17;126522;1088;102920;-79
2021/06/21 02:10:34;;;;;;;9.60;5.70;;;;;;;22.81;59.38;99603.44;126661;1088;103332;-78
2021/06/21 02:13:24;;;;;;;9.55;6.00;;;;;;;22.77;59.48;99600.20;126706;1088;102903;-77
2021/06/21 02:16:14;;;;;;;11.40;6.47;;;;;;;22.76;59.38;99593.22;126520;1088;102865;-78
2021/06/21 02:19:03;;;;;;;11.33;5.97;;;;;;;22.74;59.11;99594.34;126427;1090;114415;-78
2021/06/21 02:21:51;;;;;;;8.23;5.70;;;;;;;22.69;59.46;99584.14;126735;1090;103223;-78
2021/06/21 02:24:40;;;;;;;8.90;5.87;;;;;;;22.67;59.28;99588.77;126497;1090;114262;-78
2021/06/21 02:27:30;;;;;;;8.23;6.10;;;;;;;22.65;59.78;99584.58;126572;1090;103014;-78
2021/06/21 02:30:23;;;;;;;8.57;6.10;;;;;;;22.60;59.87;99582.33;126665;1089;113926;-78
2021/06/21 02:33:12;;;;;;;9.10;5.83;;;;;;;22.59;59.67;99575.34;126565;1090;102864;-78
2021/06/21 02:36:01;;;;;;;10.50;5.90;;;;;;;22.57;59.96;99582.61;126413;1090;114272;-79
2021/06/21 02:38:48;;;;;;;11.57;6.30;;;;;;;22.56;60.17;99581.78;126556;1089;103431;-79
2021/06/21 02:41:36;;;;;;;;;;;;;;;22.53;60.46;99579.41;126551;1089;114301;-78
2021/06/21 02:44:24;;;;;;;;;;;;;;;22.50;60.34;99577.04;126581;1089;102883;-78
2021/06/21 02:47:14;;;;;;;15.80;7.47;;;;;;;22.47;60.23;99581.80;126454;1090;102962;-78
2021/06/21 02:50:06;;;;;;;12.33;6.90;;;;;;;22.43;60.61;99588.35;126633;1090;102995;-78
2021/06/21 02:53:08;;;;;;;9.73;6.93;;;;;;;22.40;60.47;99592.13;126567;1090;102872;-78
2021/06/21 02:56:05;;;;;;;7.60;6.80;;;;;;;22.38;61.10;99593.26;126579;1089;101297;-78
2021/06/21 02:59:03;;;;;;;11.53;6.73;;;;;;;22.37;60.55;99592.42;126587;1090;102894;-79
2021/06/21 03:01:54;;;;;;;7.58;6.78;;;;;;;22.36;60.87;99597.88;126447;1090;113943;-79
2021/06/21 03:04:45;;;;;;;11.43;7.00;;;;;;;22.36;60.50;99597.88;126604;1090;102962;-79
2021/06/21 03:07:33;;;;;;;11.23;6.70;;;;;;;22.36;60.62;99593.41;126501;1090;114086;-79
2021/06/21 03:10:22;;;;;;;12.20;6.80;;;;;;;22.37;60.86;99592.42;126627;1089;103105;-79
2021/06/21 03:13:12;;;;;;;11.30;6.70;;;;;;;22.38;61.05;99593.26;126421;1090;114132;-79
2021/06/21 03:16:03;;;;;;;14.67;7.47;;;;;;;22.37;60.89;99588.92;126484;1089;102874;-78
2021/06/21 03:18:52;;;;;;;10.07;6.23;;;;;;;22.36;60.63;99598.72;126529;1090;114267;-79
2021/06/21 03:21:44;;;;;;;9.43;5.97;;;;;;;22.35;60.36;99583.76;126602;1089;102862;-79
2021/06/21 03:24:32;;;;;;;10.97;6.13;;;;;;;22.34;60.24;99582.08;126447;1090;114414;-79
2021/06/21 03:27:28;;;;;;;7.67;5.90;;;;;;;22.31;59.80;99583.20;126611;1090;102963;-78
2021/06/21 03:30:17;;;;;;;12.03;6.10;;;;;;;22.30;59.74;99586.84;126477;1088;113971;-78
2021/06/21 03:33:05;;;;;;;10.00;6.10;;;;;;;22.29;60.16;99590.48;126744;1088;102927;-78
2021/06/21 03:35:54;;;;;;;8.53;5.27;;;;;;;22.26;59.67;99590.77;126496;1090;114535;-78
2021/06/21 03:38:42;;;;;;;8.37;5.83;;;;;;;22.25;59.31;99597.02;126577;1090;100423;-78
2021/06/21 03:41:30;;;;;;;7.90;5.93;;;;;;;22.25;59.55;99607.65;126486;1090;114174;-78
2021/06/21 03:44:18;;;;;;;10.00;5.63;;;;;;;22.24;59.48;99610.45;126667;1089;102890;-79
2021/06/21 03:47:11;;;;;;;6.57;5.87;;;;;;;22.25;59.24;99610.30;126609;1089;102894;-79
2021/06/21 03:49:58;;;;;;;6.50;5.67;;;;;;;22.27;59.72;99613.69;126503;1088;114144;-78
2021/06/21 03:52:50;;;;;;;10.20;6.20;;;;;;;22.30;59.19;99609.91;126563;1089;102859;-79
2021/06/21 03:55:39;;;;;;;9.63;5.83;;;;;;;22.31;58.76;99615.08;126444;1089;114344;-79
2021/06/21 03:58:27;;;;;;;9.45;5.70;;;;;;;22.35;59.30;99620.11;126594;1090;103416;-79
2021/06/21 04:01:15;;;;;;;6.90;5.67;;;;;;;22.36;59.54;99622.63;126463;1089;114233;-78
2021/06/21 04:04:03;;;;;;;10.50;5.87;;;;;;;22.36;58.77;99619.13;126735;1089;102933;-78
2021/06/21 04:06:51;;;;;;;7.20;5.53;;;;;;;22.39;58.74;99630.31;126523;1089;114132;-79
2021/06/21 04:09:40;;;;;;;10.30;6.33;;;;;;;22.44;58.86;99619.26;126645;1090;102983;-79
2021/06/21 04:12:31;;;;;;;11.10;6.47;;;;;;;22.46;58.78;99623.48;126525;1088;113291;-78
2021/06/21 04:15:22;;;;;;;6.77;5.47;;;;;;;22.49;58.82;99617.05;126791;1088;102967;-79
2021/06/21 04:18:15;;;;;;;7.43;5.50;;;;;;;22.52;58.78;99612.28;126565;1089;113143;-79
2021/06/21 04:21:03;;;;;;;9.47;5.87;;;;;;;22.56;58.76;99626.95;126629;1090;102868;-79
2021/06/21 04:23:52;;;;;;;10.93;5.80;;;;;;;22.60;58.65;99616.88;126505;1088;113268;-79
2021/06/21 04:26:40;;;;;;;8.40;5.63;;;;;;;22.65;58.66;99622.63;126638;1089;103680;-79
2021/06/21 04:29:28;;;;;;;8.10;5.30;;;;;;;22.69;58.46;99608.06;126621;1090;102904;-79
2021/06/21 04:32:16;;;;;;;8.33;5.70;;;;;;;22.76;57.89;99611.83;126691;1090;113178;-79
2021/06/21 04:35:04;;;;;;;;;;;;;;;22.79;58.15;99616.85;126654;1090;103014;-79
2021/06/21 04:37:54;;;;;;;8.80;6.10;;;;;;;22.83;57.83;99620.13;126535;1090;102868;-79
2021/06/21 04:40:43;;;;;;;9.87;5.90;;;;;;;22.85;57.67;99608.36;126598;1090;102959;-79
2021/06/21 04:43:31;;;;;;;8.93;5.43;;;;;;;22.88;57.45;99613.38;126674;1090;113955;-79
2021/06/21 04:46:23;;;;;;;7.70;5.80;;;;;;;22.90;57.34;99614.08;126824;1089;102975;-79
2021/06/21 04:49:13;;;;;;;15.00;5.60;;;;;;;22.93;57.43;99609.45;126564;1090;114025;-79
2021/06/21 04:52:04;;;;;;;7.47;5.30;;;;;;;22.97;57.64;99600.20;126591;1090;104465;-79
2021/06/21 04:55:00;;;;;;;5.90;5.10;;;;;;;23.02;57.10;99603.28;126616;1090;113320;-79
2021/06/21 04:57:49;;;;;;;10.60;5.40;;;;;;;23.07;57.40;99607.17;126654;1090;102951;-79
2021/06/21 05:00:37;;;;;;;10.93;4.93;;;;;;;23.12;57.23;99604.91;126499;1089;114456;-79
2021/06/21 05:03:24;;;;;;;10.93;5.37;;;;;;;23.18;57.15;99607.02;126525;1089;101170;-79
2021/06/21 05:06:12;;;;;;;10.53;5.20;;;;;;;23.29;57.03;99599.82;126562;1088;113282;-79
2021/06/21 05:09:00;;;;;;;8.00;5.30;;;;;;;23.36;57.07;99612.41;126539;1088;102803;-79
2021/06/21 05:11:48;;;;;;;8.87;4.53;;;;;;;23.46;57.00;99613.19;126754;1090;101217;-79
2021/06/21 05:14:37;;;;;;;12.30;4.87;;;;;;;23.57;56.94;99614.87;126669;1090;114068;-79
2021/06/21 05:17:25;;;;;;;9.20;4.30;;;;;;;23.69;56.68;99611.00;126604;1089;102939;-78
2021/06/21 05:20:13;;;;;;;9.07;4.50;;;;;;;23.87;56.24;99610.20;126531;1090;113927;-78
2021/06/21 05:23:01;;;;;;;8.67;4.93;;;;;;;24.04;56.38;99615.55;126587;1090;103818;-79
2021/06/21 05:25:49;;;;;;;12.03;5.17;;;;;;;24.25;55.98;99617.12;126675;1089;113140;-79
2021/06/21 05:28:39;;;;;;;8.23;4.40;;;;;;;24.43;54.99;99617.15;126797;1090;102929;-79
2021/06/21 05:31:27;;;;;;;10.93;4.90;;;;;;;24.59;54.55;99618.09;126522;1089;114254;-79
2021/06/21 05:34:16;;;;;;;12.80;5.40;;;;;;;24.75;54.36;99627.22;126653;1090;102768;-79
2021/06/21 05:37:05;;;;;;;11.50;4.83;;;;;;;24.86;54.56;99624.31;126669;1088;114189;-79
2021/06/21 05:39:53;;;;;;;8.13;4.40;;;;;;;25.00;54.09;99627.30;126647;1090;103326;-79
2021/06/21 05:42:43;;;;;;;13.70;5.07;;;;;;;25.15;54.08;99643.57;126559;1088;114250;-78
2021/06/21 05:45:30;;;;;;;8.53;4.30;;;;;;;25.24;53.86;99639.94;126642;1088;103065;-78
2021/06/21 05:48:18;;;;;;;10.63;4.37;;;;;;;25.43;53.53;99638.04;126678;1089;114385;-79
2021/06/21 05:51:06;;;;;;;10.73;5.00;;;;;;;25.50;53.86;99639.09;126621;1089;102865;-79
2021/06/21 05:53:55;;;;;;;9.47;4.30;;;;;;;25.67;53.59;99645.31;126704;1089;102868;-79
2021/06/21 05:56:43;;;;;;;11.10;4.25;;;;;;;25.85;53.41;99635.41;126552;1089;114410;-79
2021/06/21 05:59:31;;;;;;;10.40;4.40;;;;;;;26.16;52.78;99631.16;126661;1090;102983;-79
2021/06/21 06:02:18;;;;;;;14.37;4.23;;;;;;;27.04;51.88;99631.40;126520;1089;113476;-79
2021/06/21 06:05:08;;;;;;;11.13;4.57;;;;;;;28.49;49.92;99630.13;126686;1090;102895;-79
2021/06/21 06:07:56;;;;;;;13.70;4.60;;;;;;;30.23;45.82;99625.23;126576;1090;114157;-79
2021/06/21 06:10:44;;;;;;;12.03;3.80;;;;;;;31.63;44.39;99620.77;126660;1089;102950;-80
2021/06/21 06:13:32;;;;;;;11.67;3.77;;;;;;;32.71;41.10;99622.52;126540;1090;114091;-79
2021/06/21 06:16:20;;;;;;;12.00;3.90;;;;;;;33.92;40.52;99622.92;126716;1088;102889;-79
2021/06/21 06:19:09;;;;;;;8.77;3.43;;;;;;;34.89;37.79;99628.16;126580;1090;113108;-79
2021/06/21 06:21:59;;;;;;;10.63;3.53;;;;;;;35.86;36.38;99619.20;126654;1090;102852;-79
2021/06/21 06:24:48;;;;;;;12.93;4.40;;;;;;;36.78;35.74;99610.73;126564;1090;114388;-79
2021/06/21 06:27:37;;;;;;;10.43;3.87;;;;;;;37.68;34.11;99603.00;126685;1088;102843;-79
2021/06/21 06:30:26;;;;;;;15.07;3.63;;;;;;;38.23;32.10;99610.63;126620;1090;113516;-79
2021/06/21 06:33:14;;;;;;;15.87;3.50;;;;;;;38.79;30.76;99614.35;126577;1089;103071;-79
2021/06/21 06:36:03;;;;;;;11.87;3.53;;;;;;;39.31;30.44;99603.10;126460;1090;102958;-79
2021/06/21 06:38:51;;;;;;;11.20;3.53;;;;;;;39.65;29.50;99608.47;126313;1090;113052;-80
2021/06/21 06:41:39;;;;;;;12.83;3.17;;;;;;;40.11;28.46;99601.64;126463;1090;102880;-79
2021/06/21 06:44:27;;;;;;;19.23;3.90;;;;;;;40.38;27.96;99596.14;126523;1088;113266;-80
2021/06/21 06:47:15;;;;;;;11.83;3.87;;;;;;;40.92;27.97;99607.00;126609;1090;102708;-80
2021/06/21 06:50:04;;;;;;;17.33;3.80;;;;;;;41.48;26.59;99593.67;126556;1090;114327;-80
2021/06/21 06:52:53;;;;;;;14.00;3.30;;;;;;;41.61;25.70;99593.14;126790;1090;102945;-80
2021/06/21 06:58:48;;;;;;;;;;;;;;;41.54;23.00;99587.11;126791;1089;102868;-79
2021/06/21 07:01:36;;;;;;;18.37;3.77;;;;;;;41.13;23.46;99591.55;126652;1089;102881;-79
2021/06/21 07:04:25;;;;;;;17.53;3.07;;;;;;;40.99;23.42;99588.46;126765;1090;102956;-77
2021/06/21 07:07:12;;;;;;;19.73;3.73;;;;;;;40.84;23.10;99600.13;126593;1090;114559;-79
2021/06/21 07:10:05;;;;;;;13.30;3.00;;;;;;;40.92;23.40;99585.12;126714;1089;103008;-79
2021/06/21 07:12:53;;;;;;;14.43;3.10;;;;;;;40.76;23.07;99581.45;126639;1088;114453;-79
2021/06/21 07:15:42;;;;;;;14.37;2.83;;;;;;;40.70;22.00;99582.48;126700;1090;102938;-79
2021/06/21 07:18:30;;;;;;;15.83;2.83;;;;;;;40.37;22.01;99587.12;126665;1090;114351;-79
2021/06/21 07:21:18;;;;;;;18.20;2.60;;;;;;;40.27;22.08;99578.03;126793;1090;102642;-79
2021/06/21 07:24:11;;;;;;;14.37;3.03;;;;;;;40.27;23.46;99578.03;126646;1090;103331;-79
2021/06/21 07:27:00;;;;;;;10.30;2.90;;;;;;;40.43;22.96;99582.57;126531;1089;113045;-79
2021/06/21 07:29:49;;;;;;;20.53;3.80;;;;;;;40.21;22.50;99589.97;126609;1090;102895;-80
2021/06/21 07:32:36;;;;;;;17.97;3.10;;;;;;;40.17;23.34;99571.38;126639;1089;114383;-80
2021/06/21 07:35:27;;;;;;;18.40;3.37;;;;;;;40.36;23.10;99579.19;126852;1089;102818;-79
2021/06/21 07:38:15;;;;;;;15.70;3.30;;;;;;;40.14;21.96;99579.27;126727;1090;114936;-79
2021/06/21 07:41:03;;;;;;;16.13;3.43;;;;;;;39.76;22.23;99580.22;126827;1090;102232;-80
2021/06/21 07:43:51;;;;;;;18.60;3.37;;;;;;;39.43;22.63;99581.16;126590;1088;114423;-80
2021/06/21 07:46:39;;;;;;;15.47;3.30;;;;;;;39.28;23.48;99570.88;126659;1090;102947;-79
2021/06/21 07:49:27;;;;;;;24.27;3.87;;;;;;;39.34;23.00;99583.52;126681;1089;113348;-80
2021/06/21 07:52:16;;;;;;;18.30;3.00;;;;;;;38.92;22.82;99586.72;126700;1089;102852;-79
2021/06/21 07:55:05;;;;;;;17.70;3.67;;;;;;;38.40;23.33;99586.96;126539;1090;114441;-79
2021/06/21 07:57:52;;;;;;;12.37;2.70;;;;;;;38.17;23.67;99592.53;126584;1090;102930;-79
2021/06/21 08:00:40;;;;;;;13.27;2.80;;;;;;;37.95;24.42;99584.24;126649;1090;114421;-79
2021/06/21 08:03:28;;;;;;;14.05;3.05;;;;;;;38.02;24.27;99584.08;126608;1090;102952;-79
2021/06/21 08:06:16;;;;;;;11.80;2.83;;;;;;;38.29;24.96;99589.78;126799;1090;102927;-79
2021/06/21 08:09:04;;;;;;;13.70;2.90;;;;;;;38.55;24.19;99588.30;126518;1090;113243;-79
2021/06/21 08:11:52;;;;;;;13.03;2.47;;;;;;;38.63;23.54;99590.63;126625;1089;102714;-79
2021/06/21 08:14:41;;;;;;;10.17;2.70;;;;;;;38.49;23.41;99594.74;126643;1090;114379;-79
2021/06/21 08:17:30;;;;;;;6.17;2.30;;;;;;;38.48;24.04;99582.20;126634;1088;103100;-79
2021/06/21 08:20:17;;;;;;;15.57;2.33;;;;;;;38.34;23.98;99568.07;126712;1089;113027;-79
2021/06/21 08:23:06;;;;;;;12.83;2.63;;;;;;;38.26;24.33;99560.32;126823;1088;103031;-79
2021/06/21 08:25:54;;;;;;;11.20;2.40;;;;;;;38.23;23.89;99564.33;126619;1090;114653;-79
2021/06/21 08:28:43;;;;;;;12.87;2.30;;;;;;;38.12;24.39;99562.50;126731;1088;103389;-79
2021/06/21 08:31:31;;;;;;;11.30;2.47;;;;;;;38.02;24.07;99562.30;126702;1090;113299;-79
2021/06/21 08:34:19;;;;;;;11.13;2.17;;;;;;;37.95;24.18;99583.42;126782;1090;102853;-79
2021/06/21 08:37:07;;;;;;;15.13;3.00;;;;;;;37.63;24.25;99562.09;126620;1088;113766;-79
2021/06/21 08:39:56;;;;;;;16.30;3.00;;;;;;;37.40;24.96;99556.73;126748;1088;103384;-79
2021/06/21 08:42:44;;;;;;;12.20;2.70;;;;;;;37.18;25.41;99554.63;126662;1089;113473;-79
2021/06/21 08:45:34;;;;;;;11.80;2.27;;;;;;;37.36;25.63;99544.70;126659;1089;102871;-79
2021/06/21 08:48:23;;;;;;;5.23;1.90;;;;;;;37.59;24.42;99554.66;126567;1090;102918;-79
2021/06/21 08:51:13;;;;;;;12.83;2.70;;;;;;;37.25;24.41;99551.77;126625;1089;113814;-79
2021/06/21 08:54:00;;;;;;;14.60;2.10;;;;;;;37.00;24.68;99571.09;126596;1089;102874;-78
2021/06/21 08:56:48;;;;;;;11.00;2.20;;;;;;;36.76;24.59;99550.38;126469;1090;114113;-78
2021/06/21 08:59:40;;;;;;;12.73;2.30;;;;;;;36.45;24.40;99533.38;126633;1090;102896;-78
2021/06/21 09:02:28;;;;;;;11.37;1.90;;;;;;;36.26;24.78;99543.45;126674;1088;113233;-79
2021/06/21 09:05:17;;;;;;;13.20;2.40;;;;;;;35.90;25.06;99549.84;126611;1090;102872;-79
2021/06/21 09:08:08;;;;;;;11.20;2.30;;;;;;;35.62;24.88;99560.45;126536;1089;113228;-79
2021/06/21 09:10:55;;;;;;;10.83;2.83;;;;;;;35.33;26.28;99543.04;126721;1090;102991;-79
2021/06/21 09:13:44;;;;;;;8.90;2.10;;;;;;;35.50;26.16;99543.28;126576;1090;114394;-78
2021/06/21 09:16:44;;;;;;;12.90;2.60;;;;;;;35.46;26.44;99544.80;126617;1090;102878;-78
2021/06/21 09:19:52;;;;;;;9.30;2.10;;;;;;;35.35;25.66;99549.09;126561;1090;114304;-79
2021/06/21 09:23:01;;;;;;;11.23;2.23;;;;;;;35.31;25.97;99556.82;126682;1088;102923;-78
2021/06/21 09:25:48;;;;;;;12.90;2.90;;;;;;;35.33;26.21;99546.58;126514;1088;114138;-79
2021/06/21 09:28:36;;;;;;;20.33;2.23;;;;;;;35.24;25.50;99555.26;126630;1090;102973;-78
2021/06/21 09:31:26;;;;;;;8.37;1.70;;;;;;;35.04;24.81;99555.48;126473;1090;114357;-78
2021/06/21 09:34:17;;;;;;;12.20;2.10;;;;;;;34.82;24.94;99550.44;126627;1090;102885;-79
2021/06/21 09:37:08;;;;;;;12.80;2.30;;;;;;;34.78;25.98;99545.70;126529;1089;114255;-79
2021/06/21 09:39:56;;;;;;;10.37;2.20;;;;;;;34.57;26.21;99563.19;126692;1089;103026;-79
2021/06/21 09:42:43;;;;;;;12.60;2.20;;;;;;;34.53;26.52;99537.61;126676;1090;103011;-79
2021/06/21 09:45:31;;;;;;;9.17;1.93;;;;;;;34.57;26.37;99537.98;126542;1088;112913;-79
2021/06/21 09:48:42;;;;;;;11.67;2.10;;;;;;;34.42;27.03;99541.02;126760;1090;102926;-79
2021/06/21 09:51:37;;;;;;;13.50;2.30;;;;;;;34.34;26.70;99528.58;126587;1088;114261;-79
2021/06/21 09:54:25;;;;;;;8.10;1.90;;;;;;;34.38;26.11;99547.94;126630;1090;102990;-79
2021/06/21 09:57:14;;;;;;;7.73;2.00;;;;;;;34.41;26.44;99533.95;126564;1090;113949;-80
2021/06/21 10:00:02;;;;;;;7.67;2.00;;;;;;;34.62;26.91;99522.72;126730;1090;103031;-79
2021/06/21 10:03:08;;;;;;;17.03;1.80;;;;;;;34.67;25.33;99516.66;126628;1090;113229;-79
2021/06/21 10:06:08;;;;;;;17.67;2.63;;;;;;;34.44;26.28;99528.09;126774;1088;101985;-79
2021/06/21 10:08:56;;;;;;;13.73;2.20;;;;;;;34.25;26.07;99530.71;126641;1090;114758;-80
2021/06/21 10:11:45;;;;;;;9.17;2.20;;;;;;;34.04;26.46;99516.72;126730;1088;102948;-79
2021/06/21 10:14:33;;;;;;;8.83;2.07;;;;;;;34.04;26.09;99528.38;126518;1089;114036;-79
2021/06/21 10:17:22;;;;;;;9.37;2.00;;;;;;;33.90;26.35;99534.91;126657;1090;102968;-79
2021/06/21 10:20:11;;;;;;;8.83;2.00;;;;;;;33.64;27.02;99525.89;126501;1089;112961;-79
2021/06/21 10:23:03;;;;;;;7.30;1.70;;;;;;;33.49;27.85;99497.47;126752;1090;102969;-79
2021/06/21 10:25:51;;;;;;;7.83;2.03;;;;;;;33.81;28.42;99503.75;126614;1090;113989;-79
2021/06/21 10:28:39;;;;;;;9.67;2.23;;;;;;;33.89;27.84;99503.50;126626;1090;102943;-79
2021/06/21 10:31:30;;;;;;;6.83;1.90;;;;;;;33.88;28.30;99497.27;126468;1090;114277;-79
2021/06/21 10:34:20;;;;;;;6.80;2.07;;;;;;;33.87;28.17;99494.78;126579;1090;102901;-79
2021/06/21 10:37:18;;;;;;;7.23;1.93;;;;;;;33.98;28.38;99485.97;126765;1089;103127;-78
2021/06/21 10:40:09;;;;;;;15.67;2.40;;;;;;;33.91;28.01;99495.99;126763;1088;102861;-79
2021/06/21 10:42:58;;;;;;;6.70;1.97;;;;;;;33.69;28.21;99498.19;126643;1089;102987;-79
2021/06/21 10:45:47;;;;;;;10.77;2.07;;;;;;;33.39;28.48;99499.80;126528;1089;114064;-79
2021/06/21 10:48:35;;;;;;;13.30;2.27;;;;;;;33.09;28.37;99496.80;126777;1090;103008;-78
2021/06/21 10:51:42;;;;;;;13.73;2.33;;;;;;;32.85;28.68;99517.20;126549;1088;114205;-78
2021/06/21 10:54:29;;;;;;;8.43;2.50;;;;;;;32.64;28.83;99485.85;126646;1090;102915;-78
2021/06/21 10:57:19;;;;;;;7.57;2.00;;;;;;;32.50;29.62;99484.20;126527;1089;114286;-79
2021/06/21 11:00:14;;;;;;;11.70;1.80;;;;;;;32.51;28.92;99493.98;126653;1090;102857;-78
2021/06/21 11:03:29;;;;;;;11.57;1.77;;;;;;;32.44;28.12;99499.38;126578;1090;114357;-79
2021/06/21 11:06:24;;;;;;;6.60;1.87;;;;;;;32.32;28.86;99496.49;126641;1090;103358;-77
2021/06/21 11:09:44;;;;;;;10.40;2.37;;;;;;;32.16;28.94;99492.31;126627;1089;113322;-78
2021/06/21 11:12:33;;;;;;;6.70;2.03;;;;;;;32.14;28.64;99490.86;126751;1090;102938;-78
2021/06/21 11:15:21;;;;;;;12.10;1.80;;;;;;;31.95;28.74;99492.47;126608;1090;114048;-78
2021/06/21 11:18:23;;;;;;;7.03;1.83;;;;;;;31.93;29.02;99491.85;126635;1090;102892;-78
2021/06/21 11:21:25;;;;;;;4.87;2.03;;;;;;;32.01;29.05;99488.14;126522;1090;114003;-78
2021/06/21 11:24:46;;;;;;;6.50;1.83;;;;;;;31.93;29.08;99485.63;126774;1089;102950;-79
2021/06/21 11:27:42;;;;;;;8.83;2.10;;;;;;;31.82;29.64;99482.52;126535;1090;114096;-78
2021/06/21 11:30:36;;;;;;;10.80;2.20;;;;;;;31.68;29.81;99488.05;126521;1090;102964;-78
2021/06/21 11:33:24;;;;;;;3.00;1.67;;;;;;;31.56;29.78;99466.25;126404;1089;113181;-78
2021/06/21 11:36:12;;;;;;;10.00;1.70;;;;;;;31.61;28.99;99488.05;126618;1090;102887;-78
2021/06/21 11:39:19;;;;;;;11.33;2.23;;;;;;;31.48;29.51;99486.14;126600;1089;114146;-78
2021/06/21 11:42:08;;;;;;;10.10;2.10;;;;;;;31.50;29.43;99480.55;126777;1090;102864;-78
2021/06/21 11:44:56;;;;;;;9.47;2.10;;;;;;;31.48;29.49;99472.66;126584;1089;114361;-78
2021/06/21 11:47:44;;;;;;;14.60;2.30;;;;;;;31.47;29.42;99475.56;126612;1090;102961;-78
2021/06/21 11:50:32;;;;;;;7.00;1.80;;;;;;;31.39;29.54;99467.64;126535;1090;114407;-79
2021/06/21 11:53:24;;;;;;;10.43;2.00;;;;;;;31.35;29.76;99469.92;126636;1090;102951;-79
2021/06/21 11:56:23;;;;;;;7.97;2.00;;;;;;;31.38;30.11;99458.73;126693;1088;114439;-78
2021/06/21 11:59:11;;;;;;;5.60;1.90;;;;;;;31.48;29.50;99466.45;126689;1088;103004;-80
2021/06/21 12:02:12;;;;;;;4.80;1.73;;;;;;;31.42;28.54;99457.32;126478;1089;114379;-79
2021/06/21 12:05:09;;;;;;;9.25;2.25;;;;;;;31.33;29.28;99468.47;126645;1090;102903;-79
2021/06/21 12:07:56;;;;;;;8.07;2.13;;;;;;;31.31;29.45;99455.20;126514;1089;134741;-79
2021/06/21 12:10:45;;;;;;;8.70;2.10;;;;;;;31.36;29.63;99457.28;126645;1089;102924;-79
2021/06/21 12:13:33;;;;;;;7.97;2.17;;;;;;;31.31;28.85;99470.53;126654;1088;102959;-79
2021/06/21 12:16:21;;;;;;;11.10;2.10;;;;;;;31.23;28.83;99452.67;126596;1088;102673;-78
2021/06/21 12:19:09;;;;;;;3.77;1.63;;;;;;;31.25;29.13;99461.41;126629;1090;102930;-79
2021/06/21 12:21:57;;;;;;;7.87;2.10;;;;;;;31.25;28.99;99458.71;126539;1090;113944;-79
2021/06/21 12:24:45;;;;;;;7.47;1.80;;;;;;;31.30;29.26;99447.32;126601;1090;101072;-79
2021/06/21 12:27:33;;;;;;;5.93;1.70;;;;;;;31.41;29.32;99446.71;126714;1089;114001;-79
2021/06/21 12:30:53;;;;;;;8.57;1.90;;;;;;;31.44;29.33;99441.77;126626;1090;102676;-79
2021/06/21 12:33:43;;;;;;;8.87;2.17;;;;;;;31.51;29.15;99449.86;126498;1088;112820;-78
2021/06/21 12:36:34;;;;;;;7.50;1.57;;;;;;;31.50;27.99;99453.59;126756;1090;102894;-79
2021/06/21 12:39:22;;;;;;;9.90;1.70;;;;;;;31.39;28.31;99446.09;126706;1090;114095;-79
2021/06/21 12:42:16;;;;;;;12.03;1.83;;;;;;;31.33;28.46;99431.58;126647;1090;102849;-79
2021/06/21 12:45:37;;;;;;;8.00;1.80;;;;;;;31.25;28.55;99445.24;126462;1090;114280;-78
2021/06/21 12:48:26;;;;;;;9.23;2.03;;;;;;;31.26;28.91;99434.27;126664;1089;103124;-78
2021/06/21 12:51:16;;;;;;;12.60;1.80;;;;;;;31.29;29.06;99441.11;126689;1090;113906;-78
2021/06/21 12:54:07;;;;;;;4.10;1.40;;;;;;;31.34;29.09;99425.16;126605;1090;102847;-80
2021/06/21 12:56:56;;;;;;;5.53;1.60;;;;;;;31.48;29.00;99421.46;126498;1090;113830;-78
2021/06/21 12:59:53;;;;;;;9.97;1.80;;;;;;;31.40;28.55;99410.86;126606;1088;102874;-78
2021/06/21 13:02:45;;;;;;;8.17;1.90;;;;;;;31.35;29.20;99412.51;126560;1090;114236;-78
2021/06/21 13:05:41;;;;;;;4.47;1.47;;;;;;;31.43;29.72;99412.34;126735;1089;102955;-80